Time;durP1;ratioP1;P1;durP2;ratioP2;P2;SDS_P1;SDS_P2;PMS_P1;PMS_P2;Temp;Humidity;BMP_temperature;BMP_pressure;BME280_temperature;BME280_humidity;BME280_pressure;Samples;Min_cycle;Max_cycle;Signal;HPM_P1;HPM_P2
2022/06/04 00:00:56;;;;;;;8.48;3.28;;;;;;;24.20;51.90;100450.09;20778460;27;100139;-81
2022/06/04 00:21:18;;;;;;;5.22;3.65;;;;;;;24.08;54.88;100444.13;20787068;27;97437;-81
2022/06/04 00:31:21;;;;;;;5.80;5.13;;;;;;;24.25;55.73;100424.06;20790668;27;97919;-81
2022/06/04 00:41:40;;;;;;;6.97;3.72;;;;;;;24.03;58.13;100441.03;20788628;27;97146;-81
2022/06/04 00:51:45;;;;;;;5.45;3.88;;;;;;;23.63;58.30;100434.78;20780920;27;98037;-80
2022/06/04 01:01:54;;;;;;;6.22;4.38;;;;;;;23.76;58.45;100425.78;20783270;27;99105;-81
2022/06/04 01:12:19;;;;;;;5.10;4.60;;;;;;;23.91;58.09;100395.34;20768015;27;100923;-80
2022/06/04 01:22:42;;;;;;;7.65;4.85;;;;;;;24.00;58.64;100369.03;20785934;27;97043;-81
2022/06/04 01:33:07;;;;;;;8.45;6.90;;;;;;;24.11;58.40;100345.94;20771143;27;97909;-81
2022/06/04 01:43:13;;;;;;;9.50;6.70;;;;;;;24.27;57.52;100340.09;20763168;27;99837;-81
2022/06/04 01:53:17;;;;;;;7.00;4.60;;;;;;;24.06;58.77;100365.84;20794279;27;98321;-81
2022/06/04 02:03:35;;;;;;;5.30;4.40;;;;;;;23.97;59.88;100381.59;20793801;27;97143;-81
2022/06/04 02:13:38;;;;;;;10.50;5.78;;;;;;;23.73;61.30;100376.66;20776706;27;98606;-81
2022/06/04 02:23:38;;;;;;;5.45;4.93;;;;;;;23.79;59.98;100356.75;20800666;27;97794;-78
2022/06/04 02:33:54;;;;;;;6.07;4.80;;;;;;;23.80;59.84;100348.69;20785170;27;99463;-78
2022/06/04 02:44:07;;;;;;;5.90;4.88;;;;;;;23.73;60.34;100360.78;20788298;27;100608;-79
2022/06/04 02:54:15;;;;;;;5.32;4.78;;;;;;;23.67;60.31;100363.97;20782799;27;99773;-79
2022/06/04 03:04:16;;;;;;;7.43;5.40;;;;;;;23.70;60.81;100376.91;20770256;27;98231;-80
2022/06/04 03:14:18;;;;;;;7.88;5.50;;;;;;;23.61;60.92;100373.28;20773218;27;99845;-79
2022/06/04 03:24:19;;;;;;;9.02;5.05;;;;;;;23.70;60.21;100357.56;20773403;27;97065;-80
2022/06/04 03:34:21;;;;;;;7.97;5.63;;;;;;;23.72;59.75;100358.28;20791941;27;99436;-80
2022/06/04 03:44:22;;;;;;;5.03;4.50;;;;;;;23.59;60.16;100374.38;20784918;27;98184;-80
2022/06/04 03:54:52;;;;;;;8.33;4.77;;;;;;;23.49;60.69;100359.31;20773771;27;97150;-80
2022/06/04 04:04:44;;;;;;;6.55;3.90;;;;;;;23.42;60.61;100360.81;20780928;27;99358;-80
2022/06/04 04:14:45;;;;;;;7.25;3.50;;;;;;;23.23;60.60;100360.75;20759983;27;100071;-80
2022/06/04 04:24:46;;;;;;;7.30;3.50;;;;;;;23.37;60.13;100359.56;20765693;27;97072;-82
2022/06/04 04:34:49;;;;;;;8.50;3.75;;;;;;;23.47;59.90;100366.56;20777331;27;99796;-79
2022/06/04 04:44:49;;;;;;;9.88;4.22;;;;;;;23.31;60.87;100396.13;20774794;27;102268;-77
2022/06/04 04:54:50;;;;;;;10.30;4.25;;;;;;;22.92;61.36;100406.44;20764890;27;99307;-79
2022/06/04 05:04:50;;;;;;;10.87;3.73;;;;;;;23.19;60.31;100389.25;20789528;27;98488;-80
2022/06/04 05:14:51;;;;;;;8.85;3.40;;;;;;;23.20;60.13;100358.41;20761442;27;97595;-81
2022/06/04 05:24:52;;;;;;;9.23;3.67;;;;;;;22.65;60.77;100370.03;20772827;27;97621;-82
2022/06/04 05:34:53;;;;;;;15.07;3.25;;;;;;;23.20;58.60;100392.75;20780924;27;97672;-84
2022/06/04 05:44:54;;;;;;;8.60;2.73;;;;;;;23.34;58.21;100385.28;20783157;27;100115;-78
2022/06/04 05:54:54;;;;;;;9.05;2.85;;;;;;;23.50;57.69;100390.06;20776360;27;98059;-79
2022/06/04 06:04:55;;;;;;;8.13;2.67;;;;;;;23.57;57.27;100387.75;20772215;27;98978;-79
2022/06/04 06:14:56;;;;;;;5.95;2.90;;;;;;;23.63;57.04;100396.91;20783402;27;97552;-78
2022/06/04 06:24:57;;;;;;;6.10;2.90;;;;;;;23.69;56.75;100395.56;20770331;27;98513;-78
2022/06/04 06:34:58;;;;;;;3.60;2.70;;;;;;;23.75;56.52;100379.97;20765468;27;98116;-78
2022/06/04 06:44:58;;;;;;;9.38;2.70;;;;;;;23.70;56.76;100379.53;20787737;27;97126;-81
2022/06/04 06:54:59;;;;;;;6.20;2.72;;;;;;;23.59;56.98;100369.09;20776098;27;99019;-82
2022/06/04 07:05:00;;;;;;;9.55;2.63;;;;;;;23.59;57.01;100358.53;20767652;27;98549;-80
2022/06/04 07:15:01;;;;;;;8.07;2.83;;;;;;;23.49;57.80;100346.09;20757836;27;99679;-80
2022/06/04 07:25:01;;;;;;;33.22;21.08;;;;;;;23.46;57.83;100349.03;20773432;27;98101;-79
2022/06/04 07:35:02;;;;;;;12.90;5.00;;;;;;;23.43;58.46;100359.03;20773549;27;97407;-80
2022/06/04 07:45:03;;;;;;;9.10;4.10;;;;;;;23.40;58.55;100356.66;20786510;27;97985;-79
2022/06/04 07:55:06;;;;;;;9.57;3.40;;;;;;;23.35;59.46;100351.75;20798586;27;96947;-79
2022/06/04 08:05:06;;;;;;;;;;;;;;;23.35;59.06;100359.69;20764949;27;98467;-81
2022/06/04 08:15:07;;;;;;;5.75;3.17;;;;;;;23.38;59.50;100350.69;20760659;27;99180;-79
2022/06/04 08:25:08;;;;;;;6.38;4.47;;;;;;;23.11;61.10;100346.81;20788286;27;99655;-80
2022/06/04 08:35:09;;;;;;;7.45;3.13;;;;;;;22.98;60.18;100344.38;20791402;27;98597;-75
2022/06/04 08:45:11;;;;;;;9.70;3.33;;;;;;;22.93;61.14;100349.22;20789889;27;98029;-76
2022/06/04 09:05:46;;;;;;;7.18;3.90;;;;;;;23.16;61.94;100352.50;20813013;27;99242;-82
2022/06/04 09:15:50;;;;;;;7.07;4.43;;;;;;;23.27;61.98;100343.69;20786321;27;97086;-86
2022/06/04 09:26:09;;;;;;;5.57;3.95;;;;;;;23.27;62.84;100348.97;20770163;27;100221;-81
2022/06/04 09:36:12;;;;;;;12.45;6.32;;;;;;;23.34;62.65;100344.81;20794736;27;100143;-85
2022/06/04 09:46:13;;;;;;;5.97;4.45;;;;;;;23.36;62.07;100334.13;20785261;27;98035;-84
2022/06/04 09:56:25;;;;;;;7.72;4.63;;;;;;;23.22;63.62;100354.66;20792573;27;100700;-82
2022/06/04 10:06:27;;;;;;;11.50;7.25;;;;;;;23.22;64.02;100352.00;20807441;27;97014;-81
2022/06/04 10:16:39;;;;;;;10.33;4.53;;;;;;;23.61;62.31;100343.38;20784567;27;99245;-80
2022/06/04 10:27:02;;;;;;;11.50;5.18;;;;;;;23.87;60.70;100343.66;20804496;27;100883;-81
2022/06/04 10:37:43;;;;;;;10.15;4.40;;;;;;;24.00;60.48;100358.47;20805256;27;97093;-81
2022/06/04 10:47:55;;;;;;;6.90;4.37;;;;;;;24.20;60.34;100360.16;20809083;27;97747;-82
2022/06/04 10:58:17;;;;;;;8.68;4.90;;;;;;;24.30;59.81;100357.50;20801577;27;97301;-85
2022/06/04 11:08:23;;;;;;;7.72;4.80;;;;;;;24.38;59.50;100356.81;20813580;27;98943;-84
2022/06/04 11:18:30;;;;;;;6.65;3.70;;;;;;;24.60;59.79;100374.19;20799857;27;98989;-82
2022/06/04 11:28:32;;;;;;;9.32;5.00;;;;;;;24.75;58.35;100377.25;20783092;27;97106;-80
2022/06/04 11:38:36;;;;;;;;;;;;;;;24.81;58.47;100383.81;20815095;27;99274;-80
2022/06/04 11:48:45;;;;;;;8.77;4.38;;;;;;;24.74;57.66;100391.47;20784481;27;97275;-83
2022/06/04 11:59:22;;;;;;;6.05;4.25;;;;;;;24.82;57.58;100388.94;20815298;27;97232;-83
2022/06/04 12:09:39;;;;;;;8.50;4.57;;;;;;;24.81;57.63;100389.94;20796379;27;97728;-83
2022/06/04 12:30:39;;;;;;;4.93;3.90;;;;;;;25.09;56.25;100404.06;20809695;27;97315;-81
2022/06/04 12:40:41;;;;;;;4.88;3.28;;;;;;;25.18;56.33;100398.88;20806206;27;100594;-80
2022/06/04 12:50:46;;;;;;;;;;;;;;;25.32;55.65;100392.28;20770188;27;97194;-82
2022/06/04 13:01:03;;;;;;;11.95;4.40;;;;;;;25.39;55.65;100372.19;20766228;27;97366;-78
2022/06/04 13:11:17;;;;;;;4.57;3.03;;;;;;;25.47;54.54;100374.09;20789592;27;100456;-81
2022/06/04 13:21:21;;;;;;;3.15;2.85;;;;;;;25.50;54.39;100376.44;20787579;27;97199;-79
2022/06/04 13:31:29;;;;;;;3.70;2.75;;;;;;;25.55;54.37;100368.91;20809584;27;98306;-79
2022/06/04 13:52:10;;;;;;;5.22;3.90;;;;;;;25.72;53.36;100349.53;20799964;27;99481;-76
2022/06/04 14:02:17;;;;;;;4.07;3.17;;;;;;;25.81;52.76;100342.47;20790486;27;99913;-79
2022/06/04 14:12:24;;;;;;;4.35;2.50;;;;;;;25.91;53.47;100328.31;20790731;27;98251;-76
2022/06/04 14:22:53;;;;;;;4.28;3.10;;;;;;;26.01;53.39;100318.47;20805986;27;97765;-78
2022/06/04 14:32:55;;;;;;;19.92;2.90;;;;;;;26.08;52.72;100314.25;20793241;27;98645;-78
2022/06/04 14:43:28;;;;;;;3.50;2.10;;;;;;;26.13;53.01;100298.69;20781313;27;97124;-78
2022/06/04 14:53:30;;;;;;;3.80;2.17;;;;;;;26.17;52.00;100277.97;20724584;27;98853;-79
2022/06/04 15:03:49;;;;;;;4.57;2.10;;;;;;;26.18;50.75;100279.66;20779440;27;99729;-77
2022/06/04 15:14:38;;;;;;;4.55;2.30;;;;;;;26.14;50.44;100279.13;20792633;27;98511;-77
2022/06/04 15:24:40;;;;;;;3.85;1.83;;;;;;;26.18;50.61;100269.88;20569619;27;98418;-80
2022/06/04 15:34:45;;;;;;;9.43;2.45;;;;;;;26.26;50.92;100261.13;20770484;27;99796;-79
2022/06/04 15:45:04;;;;;;;3.13;2.08;;;;;;;26.35;50.66;100257.56;20807476;27;96954;-79
2022/06/04 15:55:26;;;;;;;3.78;2.25;;;;;;;26.46;50.55;100267.06;20788267;27;98803;-80
2022/06/04 16:05:36;;;;;;;9.45;5.68;;;;;;;26.56;50.22;100256.31;20789847;27;100196;-80
2022/06/04 16:16:05;;;;;;;8.37;4.90;;;;;;;26.66;50.17;100254.41;20770529;27;98011;-81
2022/06/04 16:26:26;;;;;;;3.45;2.97;;;;;;;26.74;49.13;100263.41;20771462;27;97559;-77
2022/06/04 16:36:52;;;;;;;2.97;2.05;;;;;;;26.83;49.22;100251.84;20810228;27;96935;-79
2022/06/04 16:47:03;;;;;;;4.30;2.20;;;;;;;26.87;47.82;100249.69;20780895;27;97618;-78
2022/06/04 16:57:07;;;;;;;3.10;1.87;;;;;;;26.87;47.59;100255.84;20774006;27;98848;-84
2022/06/04 17:07:25;;;;;;;3.53;2.05;;;;;;;26.85;47.07;100263.16;20770718;27;101085;-86
2022/06/04 17:17:43;;;;;;;3.05;1.45;;;;;;;26.77;46.82;100263.09;20788605;27;97398;-84
2022/06/04 17:27:53;;;;;;;3.05;2.10;;;;;;;26.68;47.47;100276.34;20776033;27;98255;-78
2022/06/04 17:38:11;;;;;;;3.13;1.77;;;;;;;26.63;47.33;100273.28;20788910;27;98164;-78
2022/06/04 17:48:13;;;;;;;4.43;2.10;;;;;;;26.56;47.51;100280.22;20778339;27;100505;-78
2022/06/04 17:58:14;;;;;;;2.45;2.00;;;;;;;26.41;48.61;100281.81;20786089;27;99163;-77
2022/06/04 18:08:14;;;;;;;5.17;2.03;;;;;;;26.35;48.73;100286.75;20777623;27;101782;-76
2022/06/04 18:18:16;;;;;;;3.80;3.30;;;;;;;26.23;49.79;100298.59;20777995;27;100290;-79
2022/06/04 18:28:16;;;;;;;;;;;;;;;26.10;50.49;100298.16;20778964;27;97529;-79
2022/06/04 18:38:17;;;;;;;4.90;3.27;;;;;;;26.02;50.72;100315.66;20797836;27;102471;-78
2022/06/04 18:58:40;;;;;;;4.70;3.45;;;;;;;25.77;51.05;100333.16;20794997;27;97844;-78
2022/06/04 19:08:40;;;;;;;6.67;2.80;;;;;;;25.66;51.86;100342.16;20765717;27;100012;-77
2022/06/04 19:18:43;;;;;;;5.95;3.60;;;;;;;25.60;51.61;100352.53;20774937;27;98740;-76
2022/06/04 19:28:44;;;;;;;7.13;5.18;;;;;;;25.59;52.11;100343.75;20785086;27;97605;-78
2022/06/04 19:38:45;;;;;;;8.80;3.37;;;;;;;25.74;51.68;100367.94;20754564;27;98377;-78
2022/06/04 19:48:45;;;;;;;9.18;3.30;;;;;;;25.73;52.09;100353.00;20780800;27;96955;-77
2022/06/04 19:58:46;;;;;;;8.93;4.50;;;;;;;25.71;51.93;100355.81;20785897;27;100039;-78
2022/06/04 20:08:47;;;;;;;7.97;4.10;;;;;;;25.66;52.37;100352.78;20775473;27;97232;-77
2022/06/04 20:18:47;;;;;;;8.43;4.87;;;;;;;25.62;52.21;100351.44;20789801;27;98482;-77
2022/06/04 20:28:49;;;;;;;11.55;5.10;;;;;;;25.57;53.48;100374.88;20776778;27;99898;-78
2022/06/04 20:38:50;;;;;;;6.28;4.10;;;;;;;25.48;53.83;100362.53;20737716;27;102275;-77
2022/06/04 20:48:52;;;;;;;9.38;4.60;;;;;;;25.45;53.57;100338.94;20789181;27;96998;-77
2022/06/04 20:58:54;;;;;;;7.40;3.42;;;;;;;25.35;54.06;100358.38;20790432;27;99914;-78
2022/06/04 21:08:55;;;;;;;;;;;;;;;25.31;54.36;100380.00;20818328;27;97704;-78
2022/06/04 21:18:57;;;;;;;;;;;;;;;25.22;54.71;100363.19;20810658;27;97003;-79
2022/06/04 21:28:58;;;;;;;11.23;5.90;;;;;;;25.22;54.92;100350.75;20808051;27;98302;-79
2022/06/04 21:38:59;;;;;;;6.63;4.57;;;;;;;25.15;55.22;100389.41;20804089;27;98566;-78
2022/06/04 21:49:02;;;;;;;8.85;3.70;;;;;;;25.05;55.68;100386.78;20798411;27;97636;-79
2022/06/04 21:59:03;;;;;;;7.35;3.42;;;;;;;25.02;55.85;100355.28;20806633;27;96891;-80
2022/06/04 22:09:04;;;;;;;9.43;4.43;;;;;;;24.88;56.48;100387.56;20780770;27;102400;-79
2022/06/04 22:19:04;;;;;;;8.63;4.10;;;;;;;24.82;56.08;100399.53;20772217;27;97166;-79
2022/06/04 22:29:05;;;;;;;5.97;4.22;;;;;;;24.85;55.76;100407.22;20803888;27;97638;-79
2022/06/04 22:39:05;;;;;;;6.20;3.92;;;;;;;24.72;56.20;100415.44;20783090;27;96876;-81
2022/06/04 22:49:06;;;;;;;8.43;4.35;;;;;;;24.53;56.71;100415.44;20771831;27;98983;-81
2022/06/04 22:59:09;;;;;;;4.40;4.00;;;;;;;24.41;56.94;100436.78;20778592;27;100228;-79
2022/06/04 23:09:11;;;;;;;7.38;4.65;;;;;;;24.21;57.37;100456.25;20806304;27;98278;-80
2022/06/04 23:29:34;;;;;;;11.52;3.92;;;;;;;24.09;57.67;100452.88;20803266;27;100627;-80
2022/06/04 23:39:34;;;;;;;10.15;7.38;;;;;;;24.01;58.24;100439.50;20792273;27;97535;-80
2022/06/04 23:49:35;;;;;;;7.28;5.47;;;;;;;23.92;58.64;100407.59;20764767;27;97907;-80
2022/06/04 23:59:36;;;;;;;9.88;4.65;;;;;;;23.99;58.57;100413.19;20803353;27;97148;-81
